Time;durP1;ratioP1;P1;durP2;ratioP2;P2;SDS_P1;SDS_P2;PMS_P1;PMS_P2;Temp;Humidity;BMP_temperature;BMP_pressure;BME280_temperature;BME280_humidity;BME280_pressure;Samples;Min_cycle;Max_cycle;Signal;HPM_P1;HPM_P2
2023/04/16 00:01:29;;;;;;;0.80;0.80;;;;;;;2.12;32.39;100699.81;4973799;28;20050;-78
2023/04/16 00:03:58;;;;;;;0.57;0.57;;;;;;;2.04;32.60;100698.91;4973848;28;20062;-78
2023/04/16 00:06:27;;;;;;;0.80;0.80;;;;;;;2.01;32.67;100697.38;4973362;28;20047;-78
2023/04/16 00:08:54;;;;;;;0.50;0.50;;;;;;;2.01;32.56;100699.19;4963205;28;20584;-78
2023/04/16 00:11:21;;;;;;;0.70;0.70;;;;;;;1.95;32.77;100701.47;4957145;28;20054;-79
2023/04/16 00:13:48;;;;;;;0.70;0.70;;;;;;;2.01;32.60;100705.34;4956997;28;20093;-78
2023/04/16 00:16:15;;;;;;;0.52;0.52;;;;;;;2.01;32.35;100704.53;4956433;28;20066;-81
2023/04/16 00:18:42;;;;;;;0.73;0.73;;;;;;;1.94;32.46;100699.78;4973911;28;20055;-80
2023/04/16 00:21:12;;;;;;;0.85;0.85;;;;;;;1.91;32.87;100700.06;4973481;28;20062;-80
2023/04/16 00:23:41;;;;;;;0.80;0.80;;;;;;;1.86;32.86;100704.16;4956172;28;20149;-79
2023/04/16 00:26:08;;;;;;;0.80;0.80;;;;;;;1.79;33.08;100705.72;4973243;28;20077;-79
2023/04/16 00:28:38;;;;;;;0.60;0.60;;;;;;;1.76;33.07;100706.03;4955224;28;20050;-79
2023/04/16 00:31:05;;;;;;;0.70;0.70;;;;;;;1.73;33.21;100702.66;4973316;28;20055;-79
2023/04/16 00:33:33;;;;;;;0.70;0.70;;;;;;;1.63;33.33;100701.88;4955607;28;20042;-79
2023/04/16 00:36:00;;;;;;;0.60;0.60;;;;;;;1.60;33.57;100704.00;4955901;28;20470;-79
2023/04/16 00:38:29;;;;;;;0.68;0.68;;;;;;;1.51;34.01;100708.34;4972953;28;20054;-78
2023/04/16 00:40:59;;;;;;;0.73;0.73;;;;;;;1.44;33.80;100707.22;4955812;28;20058;-78
2023/04/16 00:43:29;;;;;;;0.73;0.73;;;;;;;1.37;34.04;100703.47;4972933;28;20058;-78
2023/04/16 00:45:56;;;;;;;0.60;0.60;;;;;;;1.37;34.00;100706.13;4973378;28;20050;-78
2023/04/16 00:48:26;;;;;;;0.73;0.73;;;;;;;1.37;34.10;100696.34;4955501;28;20130;-78
2023/04/16 00:50:54;;;;;;;0.60;0.60;;;;;;;1.38;34.00;100703.34;4956365;28;20046;-78
2023/04/16 00:53:21;;;;;;;0.75;0.75;;;;;;;1.37;34.14;100706.13;4972527;28;20085;-78
2023/04/16 00:55:51;;;;;;;0.73;0.73;;;;;;;1.32;34.08;100701.25;4956015;28;20047;-79
2023/04/16 00:58:18;;;;;;;0.70;0.70;;;;;;;1.40;33.94;100703.19;4972353;28;20047;-79
2023/04/16 01:00:45;;;;;;;0.70;0.70;;;;;;;1.46;33.65;100699.94;4973093;28;20141;-78
2023/04/16 01:03:12;;;;;;;0.80;0.80;;;;;;;1.44;33.61;100696.59;4950661;29;20591;-79
2023/04/16 01:05:39;;;;;;;0.70;0.70;;;;;;;1.41;33.69;100702.22;4977966;28;20053;-79
2023/04/16 01:08:15;;;;;;;0.68;0.68;;;;;;;1.34;33.92;100701.94;4992108;28;20113;-79
2023/04/16 01:10:48;;;;;;;0.73;0.73;;;;;;;1.25;34.00;100692.16;4958559;28;20097;-79
2023/04/16 01:13:15;;;;;;;0.90;0.90;;;;;;;1.23;33.91;100694.13;4955320;28;20051;-79
2023/04/16 01:15:42;;;;;;;0.60;0.60;;;;;;;1.19;34.09;100692.72;4972413;28;20065;-79
2023/04/16 01:18:16;;;;;;;0.80;0.80;;;;;;;1.12;34.27;100691.63;4955250;28;20043;-79
2023/04/16 01:20:43;;;;;;;0.70;0.70;;;;;;;1.21;34.20;100696.09;4972293;28;20046;-79
2023/04/16 01:23:11;;;;;;;0.70;0.70;;;;;;;1.29;33.99;100697.06;4972251;28;20087;-78
2023/04/16 01:25:38;;;;;;;0.70;0.70;;;;;;;1.28;34.30;100699.84;4972301;28;20555;-79
2023/04/16 01:28:09;;;;;;;0.70;0.70;;;;;;;1.26;34.27;100699.16;4955860;28;20087;-78
2023/04/16 01:30:36;;;;;;;0.60;0.60;;;;;;;1.30;34.36;100696.06;4972129;28;20074;-79
2023/04/16 01:33:13;;;;;;;0.70;0.70;;;;;;;1.33;34.26;100691.44;4955334;28;20051;-78
2023/04/16 01:35:43;;;;;;;0.77;0.77;;;;;;;1.33;34.16;100694.09;4938930;28;20058;-79
2023/04/16 01:38:10;;;;;;;0.82;0.82;;;;;;;1.33;34.54;100699.44;4971958;28;20047;-78
2023/04/16 01:40:37;;;;;;;0.60;0.60;;;;;;;1.26;34.65;100699.97;4971327;28;20170;-78
2023/04/16 01:43:04;;;;;;;0.70;0.70;;;;;;;1.19;34.57;100692.72;4972083;28;20142;-79
2023/04/16 01:45:32;;;;;;;0.57;0.57;;;;;;;1.21;34.52;100699.56;4954666;28;20134;-79
2023/04/16 01:47:59;;;;;;;0.50;0.50;;;;;;;1.23;34.21;100696.78;4938770;28;20395;-77
2023/04/16 01:50:30;;;;;;;0.50;0.50;;;;;;;1.27;34.25;100703.50;4972145;28;20059;-79
2023/04/16 01:52:57;;;;;;;0.50;0.50;;;;;;;1.25;34.49;100698.31;4939218;28;20080;-79
2023/04/16 01:55:24;;;;;;;0.70;0.70;;;;;;;1.25;34.46;100697.47;4971781;28;20075;-79
2023/04/16 01:57:51;;;;;;;0.60;0.60;;;;;;;1.22;34.38;100701.28;4955190;28;20457;-78
2023/04/16 02:00:21;;;;;;;0.70;0.70;;;;;;;1.20;34.72;100694.41;4943063;28;20051;-81
2023/04/16 02:02:51;;;;;;;0.80;0.80;;;;;;;1.20;34.91;100689.09;4974090;28;20525;-79
2023/04/16 02:05:25;;;;;;;0.80;0.80;;;;;;;1.20;34.63;100705.88;4958685;28;20077;-79
2023/04/16 02:07:52;;;;;;;0.80;0.80;;;;;;;1.17;34.91;100698.19;4991445;28;20065;-79
2023/04/16 02:10:19;;;;;;;0.43;0.43;;;;;;;1.16;34.71;100708.97;4978095;28;20102;-79
2023/04/16 02:12:47;;;;;;;0.60;0.60;;;;;;;1.15;34.82;100707.31;4954605;28;20054;-79
2023/04/16 02:15:15;;;;;;;0.70;0.70;;;;;;;1.11;34.59;100701.41;4971865;28;20054;-79
2023/04/16 02:17:45;;;;;;;0.70;0.70;;;;;;;1.10;34.87;100698.91;4954574;28;20047;-79
2023/04/16 02:20:12;;;;;;;0.70;0.70;;;;;;;1.06;35.30;100703.66;4971698;28;20058;-79
2023/04/16 02:22:50;;;;;;;0.70;0.70;;;;;;;0.96;35.06;100703.69;4954347;28;20078;-79
2023/04/16 02:25:19;;;;;;;0.70;0.70;;;;;;;0.89;35.45;100696.38;4953931;28;20043;-77
2023/04/16 02:27:46;;;;;;;0.70;0.70;;;;;;;0.90;35.36;100711.38;4954220;28;20047;-78
2023/04/16 02:30:24;;;;;;;0.68;0.68;;;;;;;0.83;35.46;100709.25;4953911;28;20138;-77
2023/04/16 02:32:52;;;;;;;0.77;0.77;;;;;;;0.81;35.65;100705.91;4954413;28;20054;-79
2023/04/16 02:35:20;;;;;;;0.63;0.63;;;;;;;0.72;35.75;100706.75;4938639;28;20101;-79
2023/04/16 02:37:47;;;;;;;0.80;0.80;;;;;;;0.70;36.00;100707.88;4954366;28;20074;-79
2023/04/16 02:40:16;;;;;;;0.63;0.63;;;;;;;0.67;35.90;100713.47;4953596;28;20641;-79
2023/04/16 02:42:43;;;;;;;0.60;0.60;;;;;;;0.62;36.09;100706.75;4953898;28;20055;-79
2023/04/16 02:45:10;;;;;;;0.65;0.65;;;;;;;0.59;36.20;100704.38;4937996;28;20098;-78
2023/04/16 02:47:38;;;;;;;0.70;0.70;;;;;;;0.57;36.42;100710.78;4953558;28;20047;-79
2023/04/16 02:50:06;;;;;;;0.70;0.70;;;;;;;0.54;36.28;100713.72;4972092;28;20074;-79
2023/04/16 02:52:33;;;;;;;0.70;0.70;;;;;;;0.50;36.58;100718.47;4974285;28;20046;-80
2023/04/16 02:55:00;;;;;;;0.60;0.60;;;;;;;0.47;36.68;100707.28;4957612;28;20054;-79
2023/04/16 02:57:29;;;;;;;0.60;0.60;;;;;;;0.53;36.77;100714.69;4952974;28;20181;-79
2023/04/16 02:59:56;;;;;;;0.80;0.80;;;;;;;0.54;36.71;100714.56;4994469;28;20061;-80
2023/04/16 03:02:24;;;;;;;0.60;0.60;;;;;;;0.55;36.76;100718.06;4976892;28;20062;-81
2023/04/16 03:04:51;;;;;;;0.70;0.70;;;;;;;0.61;36.77;100720.19;4976981;28;20105;-80
2023/04/16 03:07:18;;;;;;;0.60;0.60;;;;;;;0.61;36.74;100715.69;4994965;28;20057;-79
2023/04/16 03:09:45;;;;;;;0.60;0.60;;;;;;;0.60;36.74;100713.16;4986263;28;20050;-80
2023/04/16 03:12:12;;;;;;;0.65;0.65;;;;;;;0.61;36.90;100714.88;4975219;28;20141;-79
2023/04/16 03:14:40;;;;;;;0.60;0.60;;;;;;;0.66;36.60;100712.63;4957567;28;20047;-80
2023/04/16 03:17:07;;;;;;;0.50;0.50;;;;;;;0.71;36.74;100722.81;4957535;28;20085;-78
2023/04/16 03:19:34;;;;;;;0.77;0.77;;;;;;;0.74;36.57;100719.91;4957217;28;20470;-79
2023/04/16 03:22:01;;;;;;;0.60;0.60;;;;;;;0.75;36.64;100724.22;4974510;28;20102;-78
2023/04/16 03:24:28;;;;;;;0.80;0.80;;;;;;;0.76;36.69;100718.78;4974288;28;20046;-78
2023/04/16 03:26:57;;;;;;;0.47;0.47;;;;;;;0.80;36.75;100729.97;4974656;28;20122;-78
2023/04/16 03:29:25;;;;;;;0.60;0.60;;;;;;;0.82;36.54;100720.03;4957147;28;20057;-79
2023/04/16 03:31:53;;;;;;;0.50;0.50;;;;;;;0.84;36.59;100721.59;4957383;28;20051;-80
2023/04/16 03:34:22;;;;;;;0.60;0.60;;;;;;;0.90;36.22;100722.84;4957821;28;20042;-79
2023/04/16 03:36:49;;;;;;;0.68;0.68;;;;;;;1.03;35.94;100720.72;4974791;28;20138;-80
2023/04/16 03:39:18;;;;;;;0.55;0.55;;;;;;;1.21;35.51;100722.69;4954794;28;20065;-79
2023/04/16 03:41:46;;;;;;;0.50;0.50;;;;;;;1.34;35.16;100711.72;4944108;28;20071;-78
2023/04/16 03:44:16;;;;;;;0.68;0.68;;;;;;;1.48;34.95;100721.94;4952598;28;20628;-80
2023/04/16 03:46:44;;;;;;;0.52;0.52;;;;;;;1.56;34.88;100718.56;4952230;28;20203;-78
2023/04/16 03:49:11;;;;;;;0.70;0.70;;;;;;;1.69;34.67;100725.22;4956141;28;20680;-78
2023/04/16 03:51:38;;;;;;;0.60;0.60;;;;;;;1.80;33.69;100713.59;4963092;28;20581;-77
2023/04/16 03:54:06;;;;;;;0.52;0.52;;;;;;;2.00;33.17;100721.47;4983726;28;20121;-80
2023/04/16 03:56:34;;;;;;;0.60;0.60;;;;;;;2.16;33.42;100719.03;4975990;28;20069;-79
2023/04/16 03:59:01;;;;;;;0.70;0.70;;;;;;;2.25;33.20;100717.28;4967204;28;20054;-79
2023/04/16 04:01:29;;;;;;;0.50;0.50;;;;;;;2.33;33.03;100722.69;4945745;28;20147;-79
2023/04/16 04:03:56;;;;;;;0.50;0.50;;;;;;;2.47;33.11;100718.72;4938485;28;20051;-78
2023/04/16 04:06:24;;;;;;;0.50;0.50;;;;;;;2.57;33.04;100725.66;4946535;28;20062;-81
2023/04/16 04:08:51;;;;;;;0.50;0.50;;;;;;;2.58;33.03;100708.69;4976610;28;20051;-80
2023/04/16 04:11:18;;;;;;;0.70;0.70;;;;;;;2.72;32.52;100725.13;4956815;28;20134;-79
2023/04/16 04:13:46;;;;;;;0.73;0.73;;;;;;;2.75;33.01;100720.31;4956301;28;20528;-79
2023/04/16 04:16:13;;;;;;;0.70;0.70;;;;;;;2.77;32.69;100715.69;4947446;28;20043;-77
2023/04/16 04:18:43;;;;;;;0.70;0.70;;;;;;;2.79;33.46;100712.88;4920972;29;20794;-78
2023/04/16 04:21:10;;;;;;;0.43;0.43;;;;;;;2.89;33.13;100715.47;4965110;28;20723;-79
2023/04/16 04:23:38;;;;;;;0.60;0.60;;;;;;;2.99;32.42;100717.06;4924330;28;20557;-78
2023/04/16 04:26:06;;;;;;;0.70;0.70;;;;;;;3.06;32.33;100717.25;4969060;28;20422;-80
2023/04/16 04:28:34;;;;;;;0.73;0.73;;;;;;;3.16;31.82;100720.69;4934979;28;20070;-77
2023/04/16 04:31:06;;;;;;;0.77;0.77;;;;;;;3.13;31.45;100714.84;4956163;28;20086;-79
2023/04/16 04:33:33;;;;;;;0.60;0.60;;;;;;;3.15;31.73;100716.34;4971777;28;20054;-79
2023/04/16 04:36:00;;;;;;;0.70;0.70;;;;;;;3.30;31.64;100721.97;4954167;28;20047;-82
2023/04/16 04:38:28;;;;;;;0.55;0.55;;;;;;;3.40;30.99;100719.22;4955589;28;20126;-79
2023/04/16 04:40:57;;;;;;;0.73;0.73;;;;;;;3.47;31.05;100718.44;4955112;28;20062;-81
2023/04/16 04:43:26;;;;;;;0.70;0.70;;;;;;;3.46;30.97;100727.41;4951278;28;20479;-81
2023/04/16 04:45:55;;;;;;;0.70;0.70;;;;;;;3.40;31.08;100725.38;4911205;29;20051;-80
2023/04/16 04:48:26;;;;;;;0.80;0.80;;;;;;;3.43;31.17;100725.06;4936374;29;20055;-81
2023/04/16 04:50:54;;;;;;;0.60;0.60;;;;;;;3.54;31.42;100726.63;4951914;28;20474;-82
2023/04/16 04:53:23;;;;;;;0.70;0.70;;;;;;;3.59;30.97;100723.50;4939951;28;20043;-82
2023/04/16 04:55:50;;;;;;;0.60;0.60;;;;;;;3.56;31.02;100721.97;4965245;28;20074;-83
2023/04/16 04:58:23;;;;;;;0.70;0.70;;;;;;;3.55;30.94;100722.16;4936044;29;20058;-78
2023/04/16 05:00:50;;;;;;;0.80;0.80;;;;;;;3.57;30.93;100713.00;4952062;28;20506;-81
2023/04/16 05:03:26;;;;;;;0.80;0.80;;;;;;;3.63;31.08;100712.34;4956384;28;20466;-78
2023/04/16 05:05:53;;;;;;;0.80;0.80;;;;;;;3.63;31.21;100714.19;4962317;28;20079;-81
2023/04/16 05:08:24;;;;;;;0.60;0.60;;;;;;;3.71;31.18;100716.91;4973237;28;20542;-80
2023/04/16 05:10:54;;;;;;;0.70;0.70;;;;;;;3.89;31.16;100723.00;4952873;29;20149;-80
2023/04/16 05:13:23;;;;;;;0.80;0.80;;;;;;;4.12;30.48;100714.44;4944764;28;20055;-80
2023/04/16 05:15:50;;;;;;;0.80;0.80;;;;;;;4.31;30.47;100716.03;4965912;28;20047;-81
2023/04/16 05:18:17;;;;;;;0.80;0.80;;;;;;;4.56;30.13;100722.28;4963208;28;20050;-82
2023/04/16 05:20:44;;;;;;;0.80;0.80;;;;;;;4.68;29.67;100720.94;4966825;28;20047;-80
2023/04/16 05:23:11;;;;;;;0.80;0.80;;;;;;;4.90;29.63;100714.13;4969692;28;20577;-83
2023/04/16 05:25:38;;;;;;;0.60;0.60;;;;;;;5.09;29.45;100721.00;4959507;28;20684;-80
2023/04/16 05:28:05;;;;;;;0.70;0.70;;;;;;;5.31;29.95;100713.28;4970030;28;20050;-80
2023/04/16 05:30:32;;;;;;;0.70;0.70;;;;;;;5.55;28.73;100718.63;4972295;28;20102;-81
2023/04/16 05:33:05;;;;;;;0.80;0.80;;;;;;;5.69;28.60;100711.72;4971715;28;20106;-81
2023/04/16 05:35:33;;;;;;;0.90;0.90;;;;;;;5.83;28.25;100710.19;4969959;28;20050;-80
2023/04/16 05:38:03;;;;;;;0.70;0.70;;;;;;;5.85;28.00;100698.31;4967480;28;20053;-82
2023/04/16 05:40:30;;;;;;;0.80;0.80;;;;;;;5.99;28.07;100703.97;4969240;28;20062;-85
2023/04/16 05:42:57;;;;;;;0.70;0.70;;;;;;;6.06;28.11;100700.44;4963263;28;20081;-80
2023/04/16 05:45:25;;;;;;;0.70;0.70;;;;;;;5.94;27.69;100695.63;4961949;28;20051;-83
2023/04/16 05:47:53;;;;;;;0.60;0.60;;;;;;;5.95;27.31;100705.31;4991792;28;20081;-82
2023/04/16 05:50:21;;;;;;;0.60;0.60;;;;;;;5.97;27.98;100700.63;4973948;28;20054;-83
2023/04/16 05:52:48;;;;;;;0.80;0.80;;;;;;;6.06;28.15;100703.13;4992402;28;20050;-82
2023/04/16 05:55:15;;;;;;;0.70;0.70;;;;;;;6.13;28.13;100707.75;4974607;28;20058;-82
2023/04/16 05:57:42;;;;;;;0.70;0.70;;;;;;;6.34;27.90;100701.81;4934838;28;20054;-82
2023/04/16 06:00:09;;;;;;;0.80;0.80;;;;;;;6.54;27.42;100691.50;4950679;28;20050;-80
2023/04/16 06:02:39;;;;;;;0.70;0.70;;;;;;;6.76;27.21;100706.78;4964718;28;20082;-80
2023/04/16 06:05:07;;;;;;;0.80;0.80;;;;;;;7.03;26.95;100707.25;4951896;28;20055;-83
2023/04/16 06:07:34;;;;;;;0.70;0.70;;;;;;;7.25;26.77;100703.72;4949121;28;20051;-82
2023/04/16 06:10:02;;;;;;;0.80;0.80;;;;;;;7.23;26.83;100708.41;4968613;28;20061;-81
2023/04/16 06:12:30;;;;;;;0.80;0.80;;;;;;;7.09;26.29;100699.31;4969085;28;20051;-80
2023/04/16 06:15:03;;;;;;;0.70;0.70;;;;;;;7.03;26.48;100700.00;4934954;28;20085;-81
2023/04/16 06:17:30;;;;;;;0.70;0.70;;;;;;;7.03;26.83;100701.88;4951425;28;20656;-82
2023/04/16 06:19:57;;;;;;;0.70;0.70;;;;;;;7.10;26.48;100702.84;4936245;28;20061;-82
2023/04/16 06:22:24;;;;;;;0.70;0.70;;;;;;;7.15;26.50;100703.94;4956168;28;20053;-82
2023/04/16 06:24:52;;;;;;;0.70;0.70;;;;;;;7.37;26.17;100704.94;4962760;28;20061;-82
2023/04/16 06:27:19;;;;;;;0.70;0.70;;;;;;;7.72;25.92;100702.59;4973897;28;20113;-80
2023/04/16 06:29:46;;;;;;;0.80;0.80;;;;;;;7.73;25.38;100698.88;4972450;28;20054;-82
2023/04/16 06:32:16;;;;;;;0.80;0.80;;;;;;;7.63;25.45;100686.72;4957783;28;20469;-81
2023/04/16 06:34:43;;;;;;;0.70;0.70;;;;;;;7.76;25.36;100690.44;4973582;28;20046;-82
2023/04/16 06:37:11;;;;;;;0.70;0.70;;;;;;;8.19;25.54;100689.75;4973673;28;20051;-79
2023/04/16 06:39:44;;;;;;;0.70;0.70;;;;;;;8.43;25.09;100697.56;4958633;28;20051;-81
2023/04/16 06:42:11;;;;;;;0.70;0.70;;;;;;;8.47;24.28;100689.91;4622457;28;10000512;-81
2023/04/16 06:44:39;;;;;;;0.65;0.65;;;;;;;8.49;24.32;100692.44;4960598;28;20309;-82
2023/04/16 06:47:14;;;;;;;0.57;0.57;;;;;;;8.50;24.52;100694.91;4994230;28;20064;-81
2023/04/16 06:49:41;;;;;;;;;;;;;;;8.74;24.59;100688.34;4961728;28;20097;-80
2023/04/16 06:52:10;;;;;;;0.80;0.80;;;;;;;8.72;23.56;100684.19;4994457;28;19926;-81
2023/04/16 06:54:38;;;;;;;0.70;0.70;;;;;;;8.87;23.91;100684.97;4981154;28;20074;-82
2023/04/16 06:57:05;;;;;;;0.70;0.70;;;;;;;9.13;23.91;100689.75;4973110;28;20494;-82
2023/04/16 06:59:32;;;;;;;0.70;0.70;;;;;;;9.47;23.37;100680.91;4973567;28;20051;-81
2023/04/16 07:02:00;;;;;;;0.60;0.60;;;;;;;9.35;23.39;100682.47;4975091;28;20127;-81
2023/04/16 07:04:27;;;;;;;0.70;0.70;;;;;;;9.41;23.46;100684.38;4957485;28;20174;-82
2023/04/16 07:06:55;;;;;;;0.60;0.60;;;;;;;9.39;22.88;100681.03;4925319;28;20047;-79
2023/04/16 07:09:26;;;;;;;0.70;0.70;;;;;;;9.49;23.11;100673.44;4974176;28;20573;-81
2023/04/16 07:11:53;;;;;;;0.70;0.70;;;;;;;9.66;23.40;100667.75;4950332;28;20149;-82
2023/04/16 07:14:21;;;;;;;0.70;0.70;;;;;;;9.60;23.42;100673.97;4925441;28;20081;-81
2023/04/16 07:16:48;;;;;;;0.60;0.60;;;;;;;9.50;22.86;100675.13;4964341;28;20047;-81
2023/04/16 07:19:15;;;;;;;0.63;0.63;;;;;;;9.51;23.37;100671.38;4959753;28;20050;-81
2023/04/16 07:21:43;;;;;;;0.65;0.65;;;;;;;9.64;22.68;100683.28;4967924;28;20421;-81
2023/04/16 07:24:10;;;;;;;0.70;0.70;;;;;;;9.38;22.18;100692.88;4960837;28;20050;-82
2023/04/16 07:26:38;;;;;;;0.60;0.60;;;;;;;9.18;22.55;100687.31;4956327;28;20529;-82
2023/04/16 07:29:11;;;;;;;0.60;0.60;;;;;;;9.32;22.75;100690.97;4970116;28;20105;-82
2023/04/16 07:31:38;;;;;;;0.60;0.60;;;;;;;9.31;22.44;100687.41;4967788;28;20062;-84
2023/04/16 07:34:09;;;;;;;0.70;0.70;;;;;;;9.34;22.61;100680.78;4955951;28;20051;-81
2023/04/16 07:36:40;;;;;;;0.73;0.73;;;;;;;9.50;22.97;100672.44;4955513;28;20051;-82
2023/04/16 07:39:09;;;;;;;0.80;0.80;;;;;;;9.73;22.33;100679.44;4967447;28;20149;-81
2023/04/16 07:41:38;;;;;;;0.80;0.80;;;;;;;9.79;22.11;100678.63;4967948;28;20097;-82
2023/04/16 07:44:06;;;;;;;0.80;0.80;;;;;;;9.83;22.22;100663.72;4956318;28;20133;-81
2023/04/16 07:46:33;;;;;;;0.80;0.80;;;;;;;9.97;21.83;100672.69;4967776;28;20069;-82
2023/04/16 07:49:13;;;;;;;0.80;0.80;;;;;;;10.23;22.50;100674.72;4974135;28;20051;-80
2023/04/16 07:51:43;;;;;;;0.80;0.80;;;;;;;10.52;21.76;100678.97;4967777;28;20054;-80
2023/04/16 07:54:10;;;;;;;0.80;0.80;;;;;;;10.59;21.59;100671.72;4938743;28;20059;-81
2023/04/16 07:56:38;;;;;;;0.80;0.80;;;;;;;10.61;21.31;100660.75;4973684;28;20524;-80
2023/04/16 07:59:31;;;;;;;0.80;0.80;;;;;;;10.71;21.06;100671.13;4974080;28;20662;-82
2023/04/16 08:01:58;;;;;;;0.90;0.90;;;;;;;10.87;20.98;100642.91;4974171;28;20050;-84
2023/04/16 08:04:26;;;;;;;0.80;0.80;;;;;;;11.20;20.95;100661.84;4972231;28;20055;-81
2023/04/16 08:06:56;;;;;;;0.73;0.73;;;;;;;11.47;20.51;100633.75;4971020;28;20055;-81
2023/04/16 08:09:27;;;;;;;0.80;0.80;;;;;;;11.50;20.32;100646.00;4955836;28;20043;-81
2023/04/16 08:11:59;;;;;;;0.70;0.70;;;;;;;11.42;19.97;100646.19;4973758;28;20198;-82
2023/04/16 08:14:28;;;;;;;0.80;0.80;;;;;;;11.86;20.00;100641.97;4973595;28;20055;-82
2023/04/16 08:16:55;;;;;;;0.80;0.80;;;;;;;12.48;20.25;100637.78;4956385;28;20043;-82
2023/04/16 08:19:22;;;;;;;0.90;0.90;;;;;;;12.59;18.92;100622.69;4973471;28;20047;-81
2023/04/16 08:21:50;;;;;;;0.85;0.85;;;;;;;12.92;19.10;100640.59;4973243;28;20101;-83
2023/04/16 08:24:17;;;;;;;0.80;0.80;;;;;;;13.42;18.58;100625.19;4956222;28;20149;-83
2023/04/16 08:26:44;;;;;;;0.70;0.70;;;;;;;13.68;18.15;100644.94;4956236;28;20494;-80
2023/04/16 08:29:11;;;;;;;0.70;0.70;;;;;;;13.64;18.33;100614.72;4956222;28;20073;-81
2023/04/16 08:31:41;;;;;;;0.70;0.70;;;;;;;13.93;18.53;100611.50;4973353;28;20110;-79
2023/04/16 08:34:10;;;;;;;0.80;0.80;;;;;;;14.38;17.38;100611.94;4944674;28;20102;-80
2023/04/16 08:36:37;;;;;;;0.80;0.80;;;;;;;14.60;17.69;100620.41;4977826;28;20051;-81
2023/04/16 08:39:04;;;;;;;0.70;0.70;;;;;;;14.26;17.31;100609.16;4995325;28;20050;-82
2023/04/16 08:41:37;;;;;;;0.70;0.70;;;;;;;14.13;17.95;100617.50;4991882;28;20062;-80
2023/04/16 08:44:13;;;;;;;0.65;0.65;;;;;;;14.31;17.96;100608.47;4992384;28;20058;-81
2023/04/16 08:46:43;;;;;;;0.70;0.70;;;;;;;14.24;17.79;100614.00;4992146;28;20048;-80
2023/04/16 08:49:16;;;;;;;0.70;0.70;;;;;;;13.78;16.75;100582.84;4991456;28;20453;-80
2023/04/16 08:51:49;;;;;;;0.80;0.80;;;;;;;13.43;16.86;100615.97;4974701;28;20628;-81
2023/04/16 08:54:29;;;;;;;0.68;0.68;;;;;;;13.65;16.95;100608.25;4992141;28;20694;-81
2023/04/16 08:56:57;;;;;;;0.60;0.60;;;;;;;13.75;17.09;100606.88;4987618;28;20596;-81
2023/04/16 08:59:27;;;;;;;0.70;0.70;;;;;;;13.93;16.82;100592.50;4970485;28;20051;-82
2023/04/16 09:02:20;;;;;;;0.80;0.80;;;;;;;14.47;16.72;100593.41;4955273;28;20561;-83
2023/04/16 09:04:48;;;;;;;0.70;0.70;;;;;;;14.18;16.97;100587.78;4972164;28;20062;-81
2023/04/16 09:07:18;;;;;;;0.70;0.70;;;;;;;14.52;16.63;100590.84;4951778;28;20557;-80
2023/04/16 09:09:48;;;;;;;0.60;0.60;;;;;;;14.60;16.83;100593.25;4946706;28;20137;-80
2023/04/16 09:12:18;;;;;;;0.50;0.50;;;;;;;14.24;16.89;100596.88;4965369;28;20097;-81
2023/04/16 09:14:55;;;;;;;0.60;0.60;;;;;;;13.60;17.12;100588.28;4969842;28;20082;-80
2023/04/16 09:17:26;;;;;;;0.60;0.60;;;;;;;13.30;17.48;100580.03;4971435;28;20050;-80
2023/04/16 09:20:00;;;;;;;0.60;0.60;;;;;;;13.30;17.46;100610.69;4955032;28;20051;-81
2023/04/16 09:22:29;;;;;;;0.70;0.70;;;;;;;13.44;16.99;100595.97;4952653;29;20054;-82
2023/04/16 09:24:56;;;;;;;0.60;0.60;;;;;;;13.77;17.34;100586.59;4957137;28;20077;-81
2023/04/16 09:27:25;;;;;;;0.60;0.60;;;;;;;13.92;16.92;100598.97;4955020;28;20055;-83
2023/04/16 09:29:53;;;;;;;0.60;0.60;;;;;;;13.71;17.25;100584.81;4609735;28;10000063;-83
2023/04/16 09:32:25;;;;;;;0.60;0.60;;;;;;;13.70;16.84;100594.00;4933269;28;20098;-86
2023/04/16 09:35:00;;;;;;;0.60;0.60;;;;;;;13.64;16.60;100592.19;4925582;23;20064;-85
2023/04/16 09:37:31;;;;;;;0.68;0.68;;;;;;;13.62;16.82;100595.13;4930934;29;20108;-83
2023/04/16 09:39:59;;;;;;;0.80;0.80;;;;;;;14.09;16.47;100589.13;4930553;29;20628;-83
2023/04/16 09:42:31;;;;;;;0.70;0.70;;;;;;;14.97;16.11;100581.38;4895207;29;20590;-82
2023/04/16 09:44:59;;;;;;;0.70;0.70;;;;;;;15.74;15.37;100583.97;4922784;29;20053;-83
2023/04/16 09:47:44;;;;;;;0.70;0.70;;;;;;;15.46;15.48;100580.06;4934772;29;20084;-85
2023/04/16 09:50:16;;;;;;;0.60;0.60;;;;;;;15.53;15.16;100586.22;4907798;29;20068;-85
2023/04/16 09:52:49;;;;;;;0.77;0.77;;;;;;;15.71;15.14;100587.97;4925032;29;20123;-83
2023/04/16 09:55:26;;;;;;;0.80;0.80;;;;;;;15.92;14.86;100585.69;4926568;29;20526;-82
2023/04/16 09:58:00;;;;;;;0.80;0.80;;;;;;;17.28;14.10;100577.47;4905854;29;20052;-83
2023/04/16 10:00:30;;;;;;;0.70;0.70;;;;;;;17.80;14.21;100575.44;4925386;29;20812;-83
2023/04/16 10:03:05;;;;;;;0.50;0.50;;;;;;;16.98;14.09;100568.81;4907888;29;20055;-84
2023/04/16 10:05:34;;;;;;;0.60;0.60;;;;;;;15.96;15.14;100584.16;4922835;29;20051;-83
2023/04/16 10:08:02;;;;;;;0.50;0.50;;;;;;;15.30;15.30;100594.41;4917820;29;20048;-82
2023/04/16 10:10:29;;;;;;;0.70;0.70;;;;;;;15.02;15.46;100595.94;4895729;29;20062;-83
2023/04/16 10:12:57;;;;;;;0.90;0.90;;;;;;;16.72;14.47;100564.84;4915517;29;20100;-84
2023/04/16 10:15:24;;;;;;;0.70;0.70;;;;;;;18.04;13.88;100554.97;4902666;29;20051;-85
2023/04/16 10:17:52;;;;;;;0.80;0.80;;;;;;;18.47;13.40;100585.22;4928483;29;20095;-83
2023/04/16 10:20:25;;;;;;;0.70;0.70;;;;;;;17.97;13.26;100573.47;4929001;29;20463;-82
2023/04/16 10:22:53;;;;;;;0.70;0.70;;;;;;;18.44;13.24;100567.41;4912873;29;20052;-82
2023/04/16 10:25:20;;;;;;;0.75;0.75;;;;;;;18.89;13.28;100568.09;4910789;29;20051;-83
2023/04/16 10:27:49;;;;;;;0.80;0.80;;;;;;;18.94;12.88;100544.38;4879260;29;20508;-83
2023/04/16 10:30:17;;;;;;;0.80;0.80;;;;;;;19.20;13.03;100563.69;4920406;29;20475;-81
2023/04/16 10:32:48;;;;;;;0.70;0.70;;;;;;;19.30;13.01;100549.25;4939019;29;20407;-84
2023/04/16 10:35:18;;;;;;;0.60;0.60;;;;;;;19.36;13.23;100534.50;4938055;28;20054;-83
2023/04/16 10:37:47;;;;;;;0.70;0.70;;;;;;;20.21;12.80;100542.50;4971071;28;20514;-85
2023/04/16 10:40:25;;;;;;;0.70;0.70;;;;;;;20.32;13.05;100542.25;4932662;29;20054;-83
2023/04/16 10:42:57;;;;;;;0.80;0.80;;;;;;;20.77;12.72;100556.31;4950076;29;20055;-83
2023/04/16 10:45:36;;;;;;;0.80;0.80;;;;;;;20.90;12.06;100565.91;4947823;28;20562;-84
2023/04/16 10:48:08;;;;;;;0.70;0.70;;;;;;;20.38;12.75;100550.47;4955333;28;20562;-85
2023/04/16 10:50:36;;;;;;;0.70;0.70;;;;;;;20.86;12.33;100531.88;4951421;29;20318;-83
2023/04/16 10:53:28;;;;;;;0.60;0.60;;;;;;;20.86;12.03;100548.31;4960277;29;20061;-85
2023/04/16 10:56:04;;;;;;;0.70;0.70;;;;;;;21.25;11.62;100539.50;4911985;28;20047;-84
2023/04/16 10:58:35;;;;;;;0.70;0.70;;;;;;;21.10;11.93;100537.59;4911487;29;20048;-84
2023/04/16 11:01:32;;;;;;;0.60;0.60;;;;;;;20.95;12.22;100530.22;4952263;28;20078;-85
2023/04/16 11:04:21;;;;;;;0.63;0.63;;;;;;;21.32;12.22;100534.53;4948946;29;20426;-85
2023/04/16 11:07:14;;;;;;;0.70;0.70;;;;;;;21.76;11.54;100531.94;4945221;28;20404;-84
2023/04/16 11:09:58;;;;;;;0.70;0.70;;;;;;;22.53;11.59;100536.16;4926747;29;20047;-85
2023/04/16 11:12:39;;;;;;;0.60;0.60;;;;;;;21.98;11.33;100526.06;4942695;28;20059;-86
2023/04/16 11:15:06;;;;;;;0.70;0.70;;;;;;;21.43;11.58;100528.75;4943563;29;20082;-86
2023/04/16 11:18:00;;;;;;;0.70;0.70;;;;;;;20.30;12.37;100540.88;4932908;29;20091;-87
2023/04/16 11:20:30;;;;;;;0.70;0.70;;;;;;;20.37;12.22;100516.75;4912924;28;20420;-85
2023/04/16 11:22:57;;;;;;;0.70;0.70;;;;;;;20.39;12.24;100511.00;4916733;29;20047;-85
2023/04/16 11:25:30;;;;;;;0.63;0.63;;;;;;;20.81;12.02;100518.97;4934661;29;20094;-84
2023/04/16 11:27:58;;;;;;;0.70;0.70;;;;;;;21.49;11.67;100518.56;4939592;29;20569;-84
2023/04/16 11:30:38;;;;;;;0.65;0.65;;;;;;;21.74;11.43;100514.06;4943195;28;20446;-87
2023/04/16 11:33:08;;;;;;;0.70;0.70;;;;;;;21.78;11.86;100510.50;4929680;29;20052;-88
2023/04/16 11:35:39;;;;;;;0.70;0.70;;;;;;;22.13;11.55;100505.06;4947059;29;20066;-89
2023/04/16 11:38:06;;;;;;;0.60;0.60;;;;;;;21.67;11.65;100511.63;4907861;29;20066;-89
2023/04/16 11:40:34;;;;;;;0.63;0.63;;;;;;;21.67;11.33;100508.06;4920681;29;20054;-91
2023/04/16 11:43:04;;;;;;;0.50;0.50;;;;;;;20.68;12.11;100495.66;4908836;29;20082;-89